sensor_id;sensor_type;location;lat;lon;timestamp;P1;durP1;ratioP1;P2;durP2;ratioP2
146;SDS011;45999;48.808;9.182;2023-08-24T00:01:23;6.55;;;5.95;;
146;SDS011;45999;48.808;9.182;2023-08-24T00:03:50;8.45;;;6.38;;
146;SDS011;45999;48.808;9.182;2023-08-24T00:06:16;9.25;;;6.00;;
146;SDS011;45999;48.808;9.182;2023-08-24T00:08:42;8.73;;;5.90;;
146;SDS011;45999;48.808;9.182;2023-08-24T00:11:09;7.60;;;5.67;;
146;SDS011;45999;48.808;9.182;2023-08-24T00:13:39;7.70;;;5.77;;
146;SDS011;45999;48.808;9.182;2023-08-24T00:16:13;8.03;;;5.70;;
146;SDS011;45999;48.808;9.182;2023-08-24T00:18:40;6.83;;;6.13;;
146;SDS011;45999;48.808;9.182;2023-08-24T00:21:07;10.07;;;6.17;;
146;SDS011;45999;48.808;9.182;2023-08-24T00:23:34;6.50;;;5.80;;
146;SDS011;45999;48.808;9.182;2023-08-24T00:26:00;8.20;;;5.97;;
146;SDS011;45999;48.808;9.182;2023-08-24T00:28:26;6.93;;;6.23;;
146;SDS011;45999;48.808;9.182;2023-08-24T00:30:53;6.87;;;6.17;;
146;SDS011;45999;48.808;9.182;2023-08-24T00:33:19;7.90;;;5.70;;
146;SDS011;45999;48.808;9.182;2023-08-24T00:35:46;9.87;;;6.10;;
146;SDS011;45999;48.808;9.182;2023-08-24T00:38:12;9.60;;;6.40;;
146;SDS011;45999;48.808;9.182;2023-08-24T00:40:41;8.87;;;6.40;;
146;SDS011;45999;48.808;9.182;2023-08-24T00:43:08;9.60;;;6.57;;
146;SDS011;45999;48.808;9.182;2023-08-24T00:45:35;7.17;;;5.97;;
146;SDS011;45999;48.808;9.182;2023-08-24T00:48:02;10.07;;;6.80;;
146;SDS011;45999;48.808;9.182;2023-08-24T00:50:29;8.23;;;6.60;;
146;SDS011;45999;48.808;9.182;2023-08-24T00:52:55;7.30;;;6.10;;
146;SDS011;45999;48.808;9.182;2023-08-24T00:55:22;7.03;;;6.33;;
146;SDS011;45999;48.808;9.182;2023-08-24T00:57:48;8.80;;;6.43;;
146;SDS011;45999;48.808;9.182;2023-08-24T01:00:16;9.37;;;6.50;;
146;SDS011;45999;48.808;9.182;2023-08-24T01:02:43;7.37;;;6.67;;
146;SDS011;45999;48.808;9.182;2023-08-24T01:05:09;7.00;;;6.03;;
146;SDS011;45999;48.808;9.182;2023-08-24T01:07:37;6.87;;;6.13;;
146;SDS011;45999;48.808;9.182;2023-08-24T01:10:05;7.33;;;6.63;;
146;SDS011;45999;48.808;9.182;2023-08-24T01:12:38;7.30;;;6.60;;
146;SDS011;45999;48.808;9.182;2023-08-24T01:15:29;8.43;;;6.40;;
146;SDS011;45999;48.808;9.182;2023-08-24T01:18:04;9.53;;;6.37;;
146;SDS011;45999;48.808;9.182;2023-08-24T01:20:32;8.20;;;6.23;;
146;SDS011;45999;48.808;9.182;2023-08-24T01:23:10;7.80;;;6.90;;
146;SDS011;45999;48.808;9.182;2023-08-24T01:28:34;7.10;;;6.10;;
146;SDS011;45999;48.808;9.182;2023-08-24T01:31:03;7.10;;;6.30;;
146;SDS011;45999;48.808;9.182;2023-08-24T01:33:30;7.83;;;6.97;;
146;SDS011;45999;48.808;9.182;2023-08-24T01:35:57;7.47;;;6.60;;
146;SDS011;45999;48.808;9.182;2023-08-24T01:38:23;8.47;;;6.57;;
146;SDS011;45999;48.808;9.182;2023-08-24T01:43:38;10.73;;;6.77;;
146;SDS011;45999;48.808;9.182;2023-08-24T01:46:07;7.50;;;6.67;;
146;SDS011;45999;48.808;9.182;2023-08-24T01:48:33;8.80;;;6.43;;
146;SDS011;45999;48.808;9.182;2023-08-24T01:51:02;8.40;;;6.50;;
146;SDS011;45999;48.808;9.182;2023-08-24T01:53:30;7.63;;;6.83;;
146;SDS011;45999;48.808;9.182;2023-08-24T01:55:57;8.87;;;6.67;;
146;SDS011;45999;48.808;9.182;2023-08-24T01:58:23;7.50;;;6.77;;
146;SDS011;45999;48.808;9.182;2023-08-24T02:00:50;7.17;;;6.47;;
146;SDS011;45999;48.808;9.182;2023-08-24T02:03:16;8.67;;;6.57;;
146;SDS011;45999;48.808;9.182;2023-08-24T02:05:43;8.20;;;6.57;;
146;SDS011;45999;48.808;9.182;2023-08-24T02:08:09;8.00;;;7.20;;
146;SDS011;45999;48.808;9.182;2023-08-24T02:10:34;7.40;;;6.70;;
146;SDS011;45999;48.808;9.182;2023-08-24T02:13:01;8.80;;;6.80;;
146;SDS011;45999;48.808;9.182;2023-08-24T02:15:27;8.80;;;6.57;;
146;SDS011;45999;48.808;9.182;2023-08-24T02:17:53;9.33;;;6.73;;
146;SDS011;45999;48.808;9.182;2023-08-24T02:20:21;9.70;;;6.40;;
146;SDS011;45999;48.808;9.182;2023-08-24T02:22:47;10.07;;;7.37;;
146;SDS011;45999;48.808;9.182;2023-08-24T02:25:14;9.70;;;7.17;;
146;SDS011;45999;48.808;9.182;2023-08-24T02:27:40;7.30;;;6.60;;
146;SDS011;45999;48.808;9.182;2023-08-24T02:30:06;8.83;;;6.17;;
146;SDS011;45999;48.808;9.182;2023-08-24T02:32:33;7.13;;;6.43;;
146;SDS011;45999;48.808;9.182;2023-08-24T02:35:00;7.83;;;6.97;;
146;SDS011;45999;48.808;9.182;2023-08-24T02:37:26;7.43;;;6.37;;
146;SDS011;45999;48.808;9.182;2023-08-24T02:39:52;8.10;;;6.67;;
146;SDS011;45999;48.808;9.182;2023-08-24T02:42:19;7.30;;;6.40;;
146;SDS011;45999;48.808;9.182;2023-08-24T02:44:45;9.63;;;6.97;;
146;SDS011;45999;48.808;9.182;2023-08-24T02:47:12;8.77;;;7.10;;
146;SDS011;45999;48.808;9.182;2023-08-24T02:49:39;10.93;;;6.93;;
146;SDS011;45999;48.808;9.182;2023-08-24T02:52:06;7.67;;;6.97;;
146;SDS011;45999;48.808;9.182;2023-08-24T02:54:32;7.53;;;6.43;;
146;SDS011;45999;48.808;9.182;2023-08-24T02:56:58;7.17;;;6.23;;
146;SDS011;45999;48.808;9.182;2023-08-24T02:59:25;7.40;;;6.70;;
146;SDS011;45999;48.808;9.182;2023-08-24T03:01:51;7.80;;;7.03;;
146;SDS011;45999;48.808;9.182;2023-08-24T03:04:18;8.10;;;7.37;;
146;SDS011;45999;48.808;9.182;2023-08-24T03:06:45;8.63;;;6.90;;
146;SDS011;45999;48.808;9.182;2023-08-24T03:09:11;7.60;;;6.80;;
146;SDS011;45999;48.808;9.182;2023-08-24T03:11:38;10.10;;;7.07;;
146;SDS011;45999;48.808;9.182;2023-08-24T03:14:04;7.27;;;6.60;;
146;SDS011;45999;48.808;9.182;2023-08-24T03:16:30;9.00;;;7.40;;
146;SDS011;45999;48.808;9.182;2023-08-24T03:18:57;8.80;;;7.33;;
146;SDS011;45999;48.808;9.182;2023-08-24T03:21:23;6.87;;;6.17;;
146;SDS011;45999;48.808;9.182;2023-08-24T03:23:50;7.73;;;7.03;;
146;SDS011;45999;48.808;9.182;2023-08-24T03:26:16;7.93;;;6.17;;
146;SDS011;45999;48.808;9.182;2023-08-24T03:28:45;7.30;;;6.60;;
146;SDS011;45999;48.808;9.182;2023-08-24T03:31:11;7.20;;;6.53;;
146;SDS011;45999;48.808;9.182;2023-08-24T03:33:37;8.43;;;6.63;;
146;SDS011;45999;48.808;9.182;2023-08-24T03:36:04;7.00;;;6.30;;
146;SDS011;45999;48.808;9.182;2023-08-24T03:38:30;7.73;;;6.00;;
146;SDS011;45999;48.808;9.182;2023-08-24T03:41:00;7.43;;;6.73;;
146;SDS011;45999;48.808;9.182;2023-08-24T03:43:27;6.67;;;5.93;;
146;SDS011;45999;48.808;9.182;2023-08-24T03:45:54;6.93;;;6.30;;
146;SDS011;45999;48.808;9.182;2023-08-24T03:48:21;9.23;;;6.77;;
146;SDS011;45999;48.808;9.182;2023-08-24T03:50:47;8.13;;;6.30;;
146;SDS011;45999;48.808;9.182;2023-08-24T03:53:13;8.20;;;7.00;;
146;SDS011;45999;48.808;9.182;2023-08-24T03:55:40;9.07;;;7.03;;
146;SDS011;45999;48.808;9.182;2023-08-24T03:58:06;9.00;;;6.63;;
146;SDS011;45999;48.808;9.182;2023-08-24T04:00:33;7.33;;;6.53;;
146;SDS011;45999;48.808;9.182;2023-08-24T04:02:59;7.80;;;6.47;;
146;SDS011;45999;48.808;9.182;2023-08-24T04:05:25;7.90;;;6.97;;
146;SDS011;45999;48.808;9.182;2023-08-24T04:07:52;7.97;;;7.20;;
146;SDS011;45999;48.808;9.182;2023-08-24T04:10:19;7.40;;;6.60;;
146;SDS011;45999;48.808;9.182;2023-08-24T04:12:45;7.93;;;7.10;;
146;SDS011;45999;48.808;9.182;2023-08-24T04:15:12;7.50;;;6.77;;
146;SDS011;45999;48.808;9.182;2023-08-24T04:17:38;9.53;;;7.63;;
146;SDS011;45999;48.808;9.182;2023-08-24T04:20:05;8.23;;;7.20;;
146;SDS011;45999;48.808;9.182;2023-08-24T04:22:32;10.97;;;7.50;;
146;SDS011;45999;48.808;9.182;2023-08-24T04:24:59;8.30;;;7.50;;
146;SDS011;45999;48.808;9.182;2023-08-24T04:27:26;8.60;;;7.63;;
146;SDS011;45999;48.808;9.182;2023-08-24T04:29:52;9.37;;;7.67;;
146;SDS011;45999;48.808;9.182;2023-08-24T04:32:18;7.73;;;7.03;;
146;SDS011;45999;48.808;9.182;2023-08-24T04:34:45;8.60;;;7.33;;
146;SDS011;45999;48.808;9.182;2023-08-24T04:37:11;9.30;;;7.30;;
146;SDS011;45999;48.808;9.182;2023-08-24T04:39:37;12.10;;;8.03;;
146;SDS011;45999;48.808;9.182;2023-08-24T04:42:04;12.20;;;8.67;;
146;SDS011;45999;48.808;9.182;2023-08-24T04:44:31;12.50;;;8.33;;
146;SDS011;45999;48.808;9.182;2023-08-24T04:46:57;11.20;;;9.13;;
146;SDS011;45999;48.808;9.182;2023-08-24T04:49:24;11.87;;;8.83;;
146;SDS011;45999;48.808;9.182;2023-08-24T04:51:50;11.77;;;8.60;;
146;SDS011;45999;48.808;9.182;2023-08-24T04:54:17;8.77;;;7.83;;
146;SDS011;45999;48.808;9.182;2023-08-24T04:56:43;10.77;;;8.67;;
146;SDS011;45999;48.808;9.182;2023-08-24T04:59:09;8.77;;;7.50;;
146;SDS011;45999;48.808;9.182;2023-08-24T05:01:36;9.53;;;7.27;;
146;SDS011;45999;48.808;9.182;2023-08-24T05:04:03;9.17;;;6.83;;
146;SDS011;45999;48.808;9.182;2023-08-24T05:06:29;9.67;;;6.73;;
146;SDS011;45999;48.808;9.182;2023-08-24T05:08:55;10.03;;;7.70;;
146;SDS011;45999;48.808;9.182;2023-08-24T05:11:23;10.27;;;7.43;;
146;SDS011;45999;48.808;9.182;2023-08-24T05:13:51;11.33;;;6.77;;
146;SDS011;45999;48.808;9.182;2023-08-24T05:16:17;8.50;;;7.70;;
146;SDS011;45999;48.808;9.182;2023-08-24T05:18:43;9.13;;;7.63;;
146;SDS011;45999;48.808;9.182;2023-08-24T05:21:11;9.73;;;7.73;;
146;SDS011;45999;48.808;9.182;2023-08-24T05:23:37;8.43;;;7.30;;
146;SDS011;45999;48.808;9.182;2023-08-24T05:26:03;8.73;;;7.13;;
146;SDS011;45999;48.808;9.182;2023-08-24T05:28:30;10.07;;;7.87;;
146;SDS011;45999;48.808;9.182;2023-08-24T05:30:57;12.87;;;7.43;;
146;SDS011;45999;48.808;9.182;2023-08-24T05:33:24;9.70;;;7.97;;
146;SDS011;45999;48.808;9.182;2023-08-24T05:35:52;13.67;;;8.13;;
146;SDS011;45999;48.808;9.182;2023-08-24T05:38:19;12.27;;;8.03;;
146;SDS011;45999;48.808;9.182;2023-08-24T05:40:48;11.40;;;8.40;;
146;SDS011;45999;48.808;9.182;2023-08-24T05:43:15;11.20;;;7.40;;
146;SDS011;45999;48.808;9.182;2023-08-24T05:45:41;10.37;;;8.77;;
146;SDS011;45999;48.808;9.182;2023-08-24T05:48:09;12.97;;;7.63;;
146;SDS011;45999;48.808;9.182;2023-08-24T05:50:36;9.63;;;7.50;;
146;SDS011;45999;48.808;9.182;2023-08-24T05:53:03;13.20;;;8.57;;
146;SDS011;45999;48.808;9.182;2023-08-24T05:55:30;12.63;;;8.30;;
146;SDS011;45999;48.808;9.182;2023-08-24T05:57:56;8.30;;;7.30;;
146;SDS011;45999;48.808;9.182;2023-08-24T06:00:23;8.23;;;7.00;;
146;SDS011;45999;48.808;9.182;2023-08-24T06:02:49;7.10;;;6.40;;
146;SDS011;45999;48.808;9.182;2023-08-24T06:05:15;11.17;;;6.97;;
146;SDS011;45999;48.808;9.182;2023-08-24T06:07:43;8.97;;;7.13;;
146;SDS011;45999;48.808;9.182;2023-08-24T06:10:10;9.13;;;6.87;;
146;SDS011;45999;48.808;9.182;2023-08-24T06:12:37;8.10;;;6.70;;
146;SDS011;45999;48.808;9.182;2023-08-24T06:15:04;9.27;;;6.33;;
146;SDS011;45999;48.808;9.182;2023-08-24T06:17:34;7.33;;;6.57;;
146;SDS011;45999;48.808;9.182;2023-08-24T06:20:04;10.07;;;7.00;;
146;SDS011;45999;48.808;9.182;2023-08-24T06:22:34;9.27;;;6.30;;
146;SDS011;45999;48.808;9.182;2023-08-24T06:25:01;6.60;;;5.90;;
146;SDS011;45999;48.808;9.182;2023-08-24T06:27:28;11.00;;;6.60;;
146;SDS011;45999;48.808;9.182;2023-08-24T06:29:54;7.57;;;6.00;;
146;SDS011;45999;48.808;9.182;2023-08-24T06:32:20;9.67;;;6.17;;
146;SDS011;45999;48.808;9.182;2023-08-24T06:34:47;6.50;;;5.80;;
146;SDS011;45999;48.808;9.182;2023-08-24T06:37:13;8.10;;;5.47;;
146;SDS011;45999;48.808;9.182;2023-08-24T06:39:39;9.43;;;5.90;;
146;SDS011;45999;48.808;9.182;2023-08-24T06:42:06;11.05;;;5.97;;
146;SDS011;45999;48.808;9.182;2023-08-24T06:44:33;8.55;;;5.72;;
146;SDS011;45999;48.808;9.182;2023-08-24T06:46:59;11.95;;;6.40;;
146;SDS011;45999;48.808;9.182;2023-08-24T06:49:26;11.40;;;6.33;;
146;SDS011;45999;48.808;9.182;2023-08-24T06:51:52;8.63;;;5.95;;
146;SDS011;45999;48.808;9.182;2023-08-24T06:54:18;9.45;;;5.78;;
146;SDS011;45999;48.808;9.182;2023-08-24T06:56:45;6.68;;;5.78;;
146;SDS011;45999;48.808;9.182;2023-08-24T06:59:11;10.38;;;6.53;;
146;SDS011;45999;48.808;9.182;2023-08-24T07:01:38;7.63;;;6.13;;
146;SDS011;45999;48.808;9.182;2023-08-24T07:04:05;7.93;;;5.90;;
146;SDS011;45999;48.808;9.182;2023-08-24T07:06:35;6.60;;;5.28;;
146;SDS011;45999;48.808;9.182;2023-08-24T07:09:02;8.20;;;5.80;;
146;SDS011;45999;48.808;9.182;2023-08-24T07:11:31;11.02;;;5.65;;
146;SDS011;45999;48.808;9.182;2023-08-24T07:13:58;11.18;;;6.50;;
146;SDS011;45999;48.808;9.182;2023-08-24T07:16:24;8.25;;;6.20;;
146;SDS011;45999;48.808;9.182;2023-08-24T07:18:50;9.13;;;7.05;;
146;SDS011;45999;48.808;9.182;2023-08-24T07:21:17;9.73;;;5.85;;
146;SDS011;45999;48.808;9.182;2023-08-24T07:23:43;9.65;;;6.30;;
146;SDS011;45999;48.808;9.182;2023-08-24T07:26:10;11.27;;;6.50;;
146;SDS011;45999;48.808;9.182;2023-08-24T07:28:36;12.82;;;6.60;;
146;SDS011;45999;48.808;9.182;2023-08-24T07:31:09;8.90;;;6.47;;
146;SDS011;45999;48.808;9.182;2023-08-24T07:33:37;8.73;;;6.32;;
146;SDS011;45999;48.808;9.182;2023-08-24T07:36:04;7.10;;;6.22;;
146;SDS011;45999;48.808;9.182;2023-08-24T07:38:31;9.15;;;6.20;;
146;SDS011;45999;48.808;9.182;2023-08-24T07:40:58;9.18;;;5.60;;
146;SDS011;45999;48.808;9.182;2023-08-24T07:43:24;7.65;;;5.30;;
146;SDS011;45999;48.808;9.182;2023-08-24T07:45:51;6.40;;;5.18;;
146;SDS011;45999;48.808;9.182;2023-08-24T07:48:18;8.73;;;5.25;;
146;SDS011;45999;48.808;9.182;2023-08-24T07:50:44;8.07;;;4.40;;
146;SDS011;45999;48.808;9.182;2023-08-24T07:53:10;8.05;;;4.38;;
146;SDS011;45999;48.808;9.182;2023-08-24T07:55:37;6.70;;;5.10;;
146;SDS011;45999;48.808;9.182;2023-08-24T07:58:03;6.32;;;4.70;;
146;SDS011;45999;48.808;9.182;2023-08-24T08:00:29;5.40;;;4.30;;
146;SDS011;45999;48.808;9.182;2023-08-24T08:02:56;5.70;;;3.80;;
146;SDS011;45999;48.808;9.182;2023-08-24T08:05:23;7.93;;;4.10;;
146;SDS011;45999;48.808;9.182;2023-08-24T08:07:49;5.30;;;3.78;;
146;SDS011;45999;48.808;9.182;2023-08-24T08:10:16;4.40;;;4.00;;
146;SDS011;45999;48.808;9.182;2023-08-24T08:12:45;6.90;;;4.13;;
146;SDS011;45999;48.808;9.182;2023-08-24T08:15:11;7.47;;;4.30;;
146;SDS011;45999;48.808;9.182;2023-08-24T08:17:37;5.47;;;4.20;;
146;SDS011;45999;48.808;9.182;2023-08-24T08:20:04;5.00;;;4.13;;
146;SDS011;45999;48.808;9.182;2023-08-24T08:22:31;5.03;;;4.38;;
146;SDS011;45999;48.808;9.182;2023-08-24T08:25:00;6.32;;;4.15;;
146;SDS011;45999;48.808;9.182;2023-08-24T08:27:27;4.68;;;4.13;;
146;SDS011;45999;48.808;9.182;2023-08-24T08:29:53;7.95;;;4.10;;
146;SDS011;45999;48.808;9.182;2023-08-24T08:32:20;5.25;;;4.18;;
146;SDS011;45999;48.808;9.182;2023-08-24T08:34:46;7.28;;;4.35;;
146;SDS011;45999;48.808;9.182;2023-08-24T08:37:13;7.22;;;4.22;;
146;SDS011;45999;48.808;9.182;2023-08-24T08:39:40;5.72;;;4.32;;
146;SDS011;45999;48.808;9.182;2023-08-24T08:42:11;6.45;;;4.57;;
146;SDS011;45999;48.808;9.182;2023-08-24T08:44:40;6.60;;;4.65;;
146;SDS011;45999;48.808;9.182;2023-08-24T08:47:09;5.57;;;4.05;;
146;SDS011;45999;48.808;9.182;2023-08-24T08:49:38;9.25;;;4.15;;
146;SDS011;45999;48.808;9.182;2023-08-24T08:52:05;4.35;;;3.80;;
146;SDS011;45999;48.808;9.182;2023-08-24T08:54:32;7.65;;;3.90;;
146;SDS011;45999;48.808;9.182;2023-08-24T08:56:59;4.68;;;4.15;;
146;SDS011;45999;48.808;9.182;2023-08-24T08:59:29;6.40;;;4.20;;
146;SDS011;45999;48.808;9.182;2023-08-24T09:01:56;8.63;;;4.78;;
146;SDS011;45999;48.808;9.182;2023-08-24T09:04:25;4.72;;;3.90;;
146;SDS011;45999;48.808;9.182;2023-08-24T09:06:53;5.97;;;3.88;;
146;SDS011;45999;48.808;9.182;2023-08-24T09:09:21;5.63;;;3.70;;
146;SDS011;45999;48.808;9.182;2023-08-24T09:11:48;5.63;;;3.40;;
146;SDS011;45999;48.808;9.182;2023-08-24T09:14:16;4.30;;;3.70;;
146;SDS011;45999;48.808;9.182;2023-08-24T09:16:42;7.70;;;3.92;;
146;SDS011;45999;48.808;9.182;2023-08-24T09:19:12;4.38;;;3.75;;
146;SDS011;45999;48.808;9.182;2023-08-24T09:21:39;8.70;;;4.13;;
146;SDS011;45999;48.808;9.182;2023-08-24T09:24:07;6.38;;;3.90;;
146;SDS011;45999;48.808;9.182;2023-08-24T09:26:35;6.00;;;3.88;;
146;SDS011;45999;48.808;9.182;2023-08-24T09:29:11;4.35;;;3.90;;
146;SDS011;45999;48.808;9.182;2023-08-24T09:31:42;4.47;;;4.05;;
146;SDS011;45999;48.808;9.182;2023-08-24T09:34:09;7.00;;;3.80;;
146;SDS011;45999;48.808;9.182;2023-08-24T09:36:36;9.93;;;4.60;;
146;SDS011;45999;48.808;9.182;2023-08-24T09:39:04;6.18;;;4.05;;
146;SDS011;45999;48.808;9.182;2023-08-24T09:41:38;7.70;;;4.18;;
146;SDS011;45999;48.808;9.182;2023-08-24T09:44:06;6.13;;;4.30;;
146;SDS011;45999;48.808;9.182;2023-08-24T09:46:33;5.45;;;4.20;;
146;SDS011;45999;48.808;9.182;2023-08-24T09:49:00;8.05;;;4.35;;
146;SDS011;45999;48.808;9.182;2023-08-24T09:51:27;8.23;;;4.70;;
146;SDS011;45999;48.808;9.182;2023-08-24T09:53:56;7.65;;;4.80;;
146;SDS011;45999;48.808;9.182;2023-08-24T09:56:28;7.80;;;4.50;;
146;SDS011;45999;48.808;9.182;2023-08-24T09:58:55;4.47;;;4.07;;
146;SDS011;45999;48.808;9.182;2023-08-24T10:01:26;4.50;;;3.78;;
146;SDS011;45999;48.808;9.182;2023-08-24T10:03:53;6.20;;;4.20;;
146;SDS011;45999;48.808;9.182;2023-08-24T10:06:23;6.28;;;4.18;;
146;SDS011;45999;48.808;9.182;2023-08-24T10:08:54;6.90;;;4.10;;
146;SDS011;45999;48.808;9.182;2023-08-24T10:11:29;6.40;;;4.43;;
146;SDS011;45999;48.808;9.182;2023-08-24T10:13:59;5.15;;;4.30;;
146;SDS011;45999;48.808;9.182;2023-08-24T10:16:33;5.80;;;4.30;;
146;SDS011;45999;48.808;9.182;2023-08-24T10:19:02;6.82;;;4.57;;
146;SDS011;45999;48.808;9.182;2023-08-24T10:21:28;9.30;;;4.65;;
146;SDS011;45999;48.808;9.182;2023-08-24T10:23:56;7.57;;;4.20;;
146;SDS011;45999;48.808;9.182;2023-08-24T10:26:23;5.03;;;4.50;;
146;SDS011;45999;48.808;9.182;2023-08-24T10:28:50;4.88;;;4.20;;
146;SDS011;45999;48.808;9.182;2023-08-24T10:31:17;6.20;;;4.80;;
146;SDS011;45999;48.808;9.182;2023-08-24T10:33:45;5.65;;;4.25;;
146;SDS011;45999;48.808;9.182;2023-08-24T10:36:13;5.25;;;4.75;;
146;SDS011;45999;48.808;9.182;2023-08-24T10:38:40;10.13;;;4.63;;
146;SDS011;45999;48.808;9.182;2023-08-24T10:41:07;7.60;;;4.32;;
146;SDS011;45999;48.808;9.182;2023-08-24T10:43:34;7.47;;;4.28;;
146;SDS011;45999;48.808;9.182;2023-08-24T10:46:04;5.72;;;4.80;;
146;SDS011;45999;48.808;9.182;2023-08-24T10:53:52;5.78;;;4.45;;
146;SDS011;45999;48.808;9.182;2023-08-24T10:56:20;6.50;;;4.70;;
146;SDS011;45999;48.808;9.182;2023-08-24T10:58:47;5.50;;;4.03;;
146;SDS011;45999;48.808;9.182;2023-08-24T11:01:33;5.72;;;4.63;;
146;SDS011;45999;48.808;9.182;2023-08-24T11:04:04;8.80;;;4.55;;
146;SDS011;45999;48.808;9.182;2023-08-24T11:06:31;7.13;;;5.10;;
146;SDS011;45999;48.808;9.182;2023-08-24T11:09:08;4.95;;;4.30;;
146;SDS011;45999;48.808;9.182;2023-08-24T11:11:39;5.20;;;4.68;;
146;SDS011;45999;48.808;9.182;2023-08-24T11:14:16;4.78;;;4.38;;
146;SDS011;45999;48.808;9.182;2023-08-24T11:16:45;5.15;;;4.70;;
146;SDS011;45999;48.808;9.182;2023-08-24T11:19:13;8.95;;;5.03;;
146;SDS011;45999;48.808;9.182;2023-08-24T11:21:40;6.38;;;4.57;;
146;SDS011;45999;48.808;9.182;2023-08-24T11:24:13;6.25;;;4.80;;
146;SDS011;45999;48.808;9.182;2023-08-24T11:26:41;8.35;;;4.93;;
146;SDS011;45999;48.808;9.182;2023-08-24T11:29:09;5.43;;;4.75;;
146;SDS011;45999;48.808;9.182;2023-08-24T11:31:36;7.50;;;5.03;;
146;SDS011;45999;48.808;9.182;2023-08-24T11:34:03;5.57;;;5.00;;
146;SDS011;45999;48.808;9.182;2023-08-24T11:36:31;5.55;;;4.97;;
146;SDS011;45999;48.808;9.182;2023-08-24T11:38:58;7.28;;;5.13;;
146;SDS011;45999;48.808;9.182;2023-08-24T11:41:25;5.63;;;4.88;;
146;SDS011;45999;48.808;9.182;2023-08-24T11:43:59;5.55;;;5.05;;
146;SDS011;45999;48.808;9.182;2023-08-24T11:46:28;6.35;;;5.32;;
146;SDS011;45999;48.808;9.182;2023-08-24T11:48:56;10.63;;;4.88;;
146;SDS011;45999;48.808;9.182;2023-08-24T11:51:23;8.25;;;5.28;;
146;SDS011;45999;48.808;9.182;2023-08-24T11:53:50;8.05;;;5.53;;
146;SDS011;45999;48.808;9.182;2023-08-24T11:56:17;8.73;;;5.63;;
146;SDS011;45999;48.808;9.182;2023-08-24T11:58:47;7.93;;;5.90;;
146;SDS011;45999;48.808;9.182;2023-08-24T12:01:14;10.75;;;5.10;;
146;SDS011;45999;48.808;9.182;2023-08-24T12:03:42;6.25;;;5.60;;
146;SDS011;45999;48.808;9.182;2023-08-24T12:06:12;10.30;;;4.97;;
146;SDS011;45999;48.808;9.182;2023-08-24T12:08:40;7.95;;;5.18;;
146;SDS011;45999;48.808;9.182;2023-08-24T12:11:17;8.75;;;5.40;;
146;SDS011;45999;48.808;9.182;2023-08-24T12:13:49;7.32;;;5.53;;
146;SDS011;45999;48.808;9.182;2023-08-24T12:16:16;8.77;;;5.40;;
146;SDS011;45999;48.808;9.182;2023-08-24T12:18:53;5.82;;;5.30;;
146;SDS011;45999;48.808;9.182;2023-08-24T12:21:21;7.72;;;5.45;;
146;SDS011;45999;48.808;9.182;2023-08-24T12:26:44;7.65;;;5.28;;
146;SDS011;45999;48.808;9.182;2023-08-24T12:29:21;9.55;;;5.05;;
146;SDS011;45999;48.808;9.182;2023-08-24T12:31:48;7.30;;;4.65;;
146;SDS011;45999;48.808;9.182;2023-08-24T12:34:15;9.63;;;5.03;;
146;SDS011;45999;48.808;9.182;2023-08-24T12:36:42;6.13;;;5.38;;
146;SDS011;45999;48.808;9.182;2023-08-24T12:39:10;8.07;;;5.88;;
146;SDS011;45999;48.808;9.182;2023-08-24T12:41:37;8.00;;;5.55;;
146;SDS011;45999;48.808;9.182;2023-08-24T12:44:04;8.88;;;5.53;;
146;SDS011;45999;48.808;9.182;2023-08-24T12:46:34;8.05;;;5.50;;
146;SDS011;45999;48.808;9.182;2023-08-24T12:49:01;6.28;;;5.68;;
146;SDS011;45999;48.808;9.182;2023-08-24T12:51:28;8.75;;;5.38;;
146;SDS011;45999;48.808;9.182;2023-08-24T12:53:54;10.32;;;5.03;;
146;SDS011;45999;48.808;9.182;2023-08-24T12:56:20;9.90;;;5.38;;
146;SDS011;45999;48.808;9.182;2023-08-24T12:58:47;8.02;;;5.25;;
146;SDS011;45999;48.808;9.182;2023-08-24T13:01:13;8.80;;;5.65;;
146;SDS011;45999;48.808;9.182;2023-08-24T13:03:40;8.75;;;5.55;;
146;SDS011;45999;48.808;9.182;2023-08-24T13:06:06;6.78;;;5.13;;
146;SDS011;45999;48.808;9.182;2023-08-24T13:08:33;7.63;;;5.07;;
146;SDS011;45999;48.808;9.182;2023-08-24T13:10:59;9.27;;;5.97;;
146;SDS011;45999;48.808;9.182;2023-08-24T13:13:26;6.88;;;5.03;;
146;SDS011;45999;48.808;9.182;2023-08-24T13:15:52;7.97;;;5.75;;
146;SDS011;45999;48.808;9.182;2023-08-24T13:18:18;6.63;;;5.55;;
146;SDS011;45999;48.808;9.182;2023-08-24T13:20:45;9.90;;;5.25;;
146;SDS011;45999;48.808;9.182;2023-08-24T13:23:11;9.55;;;5.50;;
146;SDS011;45999;48.808;9.182;2023-08-24T13:25:38;6.55;;;4.68;;
146;SDS011;45999;48.808;9.182;2023-08-24T13:28:04;6.18;;;4.93;;
146;SDS011;45999;48.808;9.182;2023-08-24T13:30:31;8.90;;;4.78;;
146;SDS011;45999;48.808;9.182;2023-08-24T13:32:57;7.82;;;5.22;;
146;SDS011;45999;48.808;9.182;2023-08-24T13:35:23;12.82;;;5.45;;
146;SDS011;45999;48.808;9.182;2023-08-24T13:37:50;8.07;;;5.35;;
146;SDS011;45999;48.808;9.182;2023-08-24T13:40:16;10.23;;;4.88;;
146;SDS011;45999;48.808;9.182;2023-08-24T13:42:43;8.15;;;5.20;;
146;SDS011;45999;48.808;9.182;2023-08-24T13:45:10;8.27;;;5.07;;
146;SDS011;45999;48.808;9.182;2023-08-24T13:47:37;10.15;;;5.47;;
146;SDS011;45999;48.808;9.182;2023-08-24T13:50:03;7.97;;;4.82;;
146;SDS011;45999;48.808;9.182;2023-08-24T13:52:30;6.38;;;4.93;;
146;SDS011;45999;48.808;9.182;2023-08-24T13:54:56;5.40;;;4.90;;
146;SDS011;45999;48.808;9.182;2023-08-24T13:57:23;9.10;;;5.35;;
146;SDS011;45999;48.808;9.182;2023-08-24T13:59:50;12.48;;;5.38;;
146;SDS011;45999;48.808;9.182;2023-08-24T14:02:16;7.55;;;4.95;;
146;SDS011;45999;48.808;9.182;2023-08-24T14:04:43;9.05;;;4.68;;
146;SDS011;45999;48.808;9.182;2023-08-24T14:07:09;9.55;;;4.75;;
146;SDS011;45999;48.808;9.182;2023-08-24T14:09:35;11.25;;;4.93;;
146;SDS011;45999;48.808;9.182;2023-08-24T14:12:02;8.52;;;5.18;;
146;SDS011;45999;48.808;9.182;2023-08-24T14:14:28;8.25;;;4.47;;
146;SDS011;45999;48.808;9.182;2023-08-24T14:16:55;10.15;;;5.03;;
146;SDS011;45999;48.808;9.182;2023-08-24T14:19:22;9.77;;;5.07;;
146;SDS011;45999;48.808;9.182;2023-08-24T14:21:49;9.00;;;4.85;;
146;SDS011;45999;48.808;9.182;2023-08-24T14:24:15;9.88;;;4.75;;
146;SDS011;45999;48.808;9.182;2023-08-24T14:26:41;8.07;;;4.50;;
146;SDS011;45999;48.808;9.182;2023-08-24T14:29:11;8.82;;;4.97;;
146;SDS011;45999;48.808;9.182;2023-08-24T14:31:38;8.15;;;4.57;;
146;SDS011;45999;48.808;9.182;2023-08-24T14:34:04;9.13;;;4.80;;
146;SDS011;45999;48.808;9.182;2023-08-24T14:36:31;13.48;;;4.72;;
146;SDS011;45999;48.808;9.182;2023-08-24T14:38:57;12.65;;;8.48;;
146;SDS011;45999;48.808;9.182;2023-08-24T14:41:24;9.93;;;4.60;;
146;SDS011;45999;48.808;9.182;2023-08-24T14:43:50;15.85;;;5.57;;
146;SDS011;45999;48.808;9.182;2023-08-24T14:46:17;11.10;;;4.90;;
146;SDS011;45999;48.808;9.182;2023-08-24T14:48:43;12.80;;;4.95;;
146;SDS011;45999;48.808;9.182;2023-08-24T14:51:09;9.82;;;5.05;;
146;SDS011;45999;48.808;9.182;2023-08-24T14:53:36;9.07;;;4.60;;
146;SDS011;45999;48.808;9.182;2023-08-24T14:56:03;12.20;;;5.07;;
146;SDS011;45999;48.808;9.182;2023-08-24T14:58:29;8.38;;;4.93;;
146;SDS011;45999;48.808;9.182;2023-08-24T15:00:56;31.80;;;7.20;;
146;SDS011;45999;48.808;9.182;2023-08-24T15:03:24;21.45;;;6.25;;
146;SDS011;45999;48.808;9.182;2023-08-24T15:05:57;11.27;;;4.78;;
146;SDS011;45999;48.808;9.182;2023-08-24T15:08:25;10.90;;;4.95;;
146;SDS011;45999;48.808;9.182;2023-08-24T15:10:56;10.68;;;4.03;;
146;SDS011;45999;48.808;9.182;2023-08-24T15:13:24;5.50;;;3.20;;
146;SDS011;45999;48.808;9.182;2023-08-24T15:15:52;6.63;;;3.85;;
146;SDS011;45999;48.808;9.182;2023-08-24T15:18:20;7.43;;;4.03;;
146;SDS011;45999;48.808;9.182;2023-08-24T15:20:47;10.82;;;4.10;;
146;SDS011;45999;48.808;9.182;2023-08-24T15:23:20;4.40;;;3.90;;
146;SDS011;45999;48.808;9.182;2023-08-24T15:25:56;8.15;;;3.92;;
146;SDS011;45999;48.808;9.182;2023-08-24T15:28:24;5.78;;;4.40;;